EBBE - Beauvechain (baf, Belgium
Distance from station: WNW 7km
Updated: Thu, 28-May-2020 9:55pm CEST
Few Clouds
Few Clouds
 Wind from NE
Vent: NE 7 km/h
Température: 15°C
Point de rosée: 4°C
Humidité: 48%
Pression: 1029 hPa
Nuages: Few Clouds
Visibilité: 10 km
Détails nuages: Few Clouds 3658 m
2020/05/28 19:55 EBBE 281955Z 05004KT 9999 FEW120 15/04 Q1029 BLU BLU
EBBR - Brussels Nationa, Belgium
Distance from station: NW 32km
Updated: Thu, 28-May-2020 10:20pm CEST
Clear
Clear
 Wind from NE
Vent: NE 9 km/h
Température: 15°C
Point de rosée: 3°C
Humidité: 45%
Pression: 1030 hPa
Résumé: Clear
Visibilité: greater than 10 km
2020/05/28 20:20 EBBR 282020Z 05005KT CAVOK 15/03 Q1030 NOSIG
 
EBDT - Schaffen, Belgium
Distance from station: NNE 35km
Updated: Thu, 28-May-2020 9:55pm CEST
Mostly Cloudy
Mostly Cloudy
 Wind from NE
Vent: NE 11 km/h
Température: 17°C
Point de rosée: 2°C
Humidité: 37%
Pression: 1029 hPa
Nuages: Mostly Cloudy
Visibilité: 10 km
Détails nuages: Mostly Cloudy 4572 m
2020/05/28 19:55 EBDT 281955Z AUTO 04006KT 9999 BKN150/// 17/02 Q1029 BLU
EBCI - Charleroi/Gossel, Belgium
Distance from station: SW 41km
Updated: Thu, 28-May-2020 10:20pm CEST
Clear
Clear
 Wind from NE
Vent: NE 15 km/h
Température: 15°C
Point de rosée: 2°C
Humidité: 42%
Pression: 1029 hPa
Résumé: Clear
Visibilité: greater than 10 km
2020/05/28 20:20 EBCI 282020Z AUTO 04008KT CAVOK 15/02 Q1029
 
EBLG - Bierset/Liege (c, Belgium
Distance from station: ESE 42km
Updated: Thu, 28-May-2020 10:20pm CEST
Clear
Clear
 Wind from NNE
Vent: NNE 9 km/h
Température: 15°C
Point de rosée: 2°C
Humidité: 42%
Pression: 1029 hPa
Résumé: Clear
Visibilité: greater than 10 km
2020/05/28 20:20 EBLG 282020Z 03005KT CAVOK 15/02 Q1029 NOSIG
EBFS - Florennes (bel-A, Belgium
Distance from station: SSW 59km
Updated: Thu, 28-May-2020 9:55pm CEST
Overcast
Overcast
 Wind from NNE
Vent: NNE 15 km/h
Température: 14°C
Point de rosée: 3°C
Humidité: 48%
Pression: 1029 hPa
Nuages: Overcast
Visibilité: 10 km
Détails nuages: Few Clouds 2591 m
Mostly Cloudy 3048 m
Overcast 3353 m
2020/05/28 19:55 EBFS 281955Z AUTO 03008KT 9999 FEW085/// BKN100/// OVC110/// 14/03 Q1029 BLU
 
EBAW - Antwerp/Deurne, Belgium
Distance from station: NNW 60km
Updated: Thu, 28-May-2020 10:20pm CEST
Clear
Clear
 Wind from NNE
Vent: NNE 17 km/h
Température: 17°C
Point de rosée: 7°C
Humidité: 52%
Pression: 1030 hPa
Résumé: Clear
Visibilité: greater than 10 km
2020/05/28 20:20 EBAW 282020Z AUTO 03009KT 360V060 CAVOK 17/07 Q1030
EBBL - Kleine-Brogel(Ba, Belgium
Distance from station: NE 65km
Updated: Thu, 28-May-2020 9:55pm CEST
Mostly Cloudy
Mostly Cloudy
 Wind from NE
Vent: NE 15 km/h
Température: 17°C
Point de rosée: 1°C
Humidité: 34%
Pression: 1030 hPa
Nuages: Mostly Cloudy
Visibilité: 10 km
Détails nuages: Mostly Cloudy 4877 m
2020/05/28 19:55 EBBL 281955Z AUTO 04008KT 9999 BKN160/// 17/01 Q1030 BLU
 
EHBK - Zuid-Limburg/Bee, Netherlands
Distance from station: ENE 67km
Updated: Thu, 28-May-2020 10:25pm CEST
Partly Cloudy
Partly Cloudy
 Wind from NNE
Vent: NNE 22 km/h
Température: 16°C
Point de rosée: 3°C
Humidité: 42%
Pression: 1029 hPa
Nuages: Partly Cloudy
Visibilité: 10 km
2020/05/28 20:25 EHBK 282025Z AUTO 03012KT 9999 NSC 16/03 Q1029 NOSIG
EBCV - Chievres Ab, Belgium
Distance from station: WSW 76km
Updated: Thu, 28-May-2020 9:55pm CEST
Clear
Clear
 Wind from NE
Vent: NE 13 km/h
Température: 17°C
Point de rosée: 2°C
Humidité: 37%
Pression: 1029 hPa
Nuages: Clear
Visibilité: 10 km
2020/05/28 19:55 EBCV 281955Z AUTO 05007KT 9999 NCD 17/02 Q1029 BLU
 
ETNG - Geilenkirchen(Na, Germany
Distance from station: ENE 86km
Updated: Thu, 28-May-2020 9:50pm CEST
Clear
Clear
 Wind from NNE
Vent: NNE 6 km/h
Température: 16°C
Point de rosée: 3°C
Humidité: 42%
Pression: 1029 hPa
Résumé: Clear
Visibilité: greater than 10 km
2020/05/28 19:50 ETNG 281950Z 02003KT CAVOK 16/03 Q1029
EHEH - Eindhoven Rnlafb, Netherlands
Distance from station: NNE 88km
Updated: Thu, 28-May-2020 10:25pm CEST
Overcast
Overcast
 Wind from NE
Vent: NE 17 km/h
Température: 16°C
Point de rosée: 2°C
Humidité: 39%
Pression: 1030 hPa
Nuages: Overcast
Visibilité: 10 km
Détails nuages: Overcast 3962 m
2020/05/28 20:25 EHEH 282025Z AUTO 04009KT 010V080 9999 OVC130 16/02 Q1030 BLU
 
EHWO - Woensdrecht Rnla, Netherlands
Distance from station: NNW 89km
Updated: Thu, 28-May-2020 10:25pm CEST
Overcast
Overcast
 Wind from NE
Vent: NE 20 km/h
Température: 16°C
Point de rosée: 7°C
Humidité: 55%
Pression: 1030 hPa
Nuages: Overcast
Visibilité: 10 km
Détails nuages: Overcast 3962 m
2020/05/28 20:25 EHWO 282025Z AUTO 04011KT 340V090 9999 OVC130 16/07 Q1030 BLU
EHGR - Gilze-Rijen Rnla, Netherlands
Distance from station: N 93km
Updated: Thu, 28-May-2020 10:25pm CEST
Clear
Clear
 Wind from NNE
Vent: NNE 15 km/h
Température: 15°C
Point de rosée: 5°C
Humidité: 51%
Pression: 1030 hPa
Nuages: Clear
Visibilité: 10 km
2020/05/28 20:25 EHGR 282025Z AUTO 02008KT 340V080 9999 NCD 15/05 Q1030 BLU 04012KT CAVOK
 
EBLB - Elsenborn (mil), Belgium
Distance from station: ESE 96km
Updated: Thu, 28-May-2020 9:55pm CEST
Clear
Clear
 Wind from NE
Vent: NE 9 km/h
Température: 11°C
Point de rosée: 1°C
Humidité: 50%
Pression: 1030 hPa
Nuages: Clear
Visibilité: 10 km
2020/05/28 19:55 EBLB 281955Z AUTO 05005KT 9999 NCD 11/01 Q1030 BLU
EHVK - Volkel Rnlafb, Netherlands
Distance from station: NNE 116km
Updated: Thu, 28-May-2020 10:25pm CEST
Overcast
Overcast
 Wind from NNE
Vent: NNE 13 km/h
Température: 15°C
Point de rosée: 3°C
Humidité: 45%
Pression: 1031 hPa
Nuages: Overcast
Visibilité: 10 km
Détails nuages: Overcast 3962 m
2020/05/28 20:25 EHVK 282025Z AUTO 03007KT 360V070 9999 OVC130 15/03 Q1031 BLU
 
EHFS - Vlissingen, Netherlands
Distance from station: NW 120km
Updated: Thu, 28-May-2020 9:55pm CEST
Partly Cloudy
Partly Cloudy
 Wind from NNE
Vent: NNE 22 km/h
Température: 15°C
Point de rosée: 9°C
Humidité: 68%
Pression: 1030 hPa
Nuages: Partly Cloudy
Visibilité: 10 km
2020/05/28 19:55 EHFS 281955Z AUTO 02012KT 350V060 9999 NSC 15/09 Q1030
LFQQ - Lille/Lesquin, France
Distance from station: W 126km
Updated: Thu, 28-May-2020 10:00pm CEST
Clear
Clear
 Wind from NNE
Vent: NNE 15 km/h
Température: 18°C
Point de rosée: 6°C
Humidité: 46%
Pression: 1029 hPa
Résumé: Clear
Visibilité: greater than 10 km
2020/05/28 20:00 LFQQ 282000Z AUTO 02008KT CAVOK 18/06 Q1029 NOSIG
 
EDLN - Monchengladbach, Germany
Distance from station: ENE 127km
Updated: Thu, 28-May-2020 10:20pm CEST
Clear
Clear
 Wind from N
Vent: N 15 km/h
Température: 17°C
Point de rosée: 3°C
Humidité: 39%
Pression: 1030 hPa
Nuages: Clear
Visibilité: 10 km
2020/05/28 20:20 EDLN 282020Z AUTO 01008KT 9999 // NCD 17/03 Q1030
ETNN - Noervenich (gaf), Germany
Distance from station: E 127km
Updated: Thu, 28-May-2020 10:20pm CEST
Few Clouds
Few Clouds
 Wind from NE
Vent: NE 6 km/h
Température: 15°C
Point de rosée: 1°C
Humidité: 39%
Pression: 1029 hPa
Nuages: Few Clouds
Visibilité: 10 km
Détails nuages: Few Clouds 3658 m
2020/05/28 20:20 ETNN 282020Z 04003KT 9999 FEW120 15/01 Q1029 BLU+

Metar display script from Saratoga-Weather.org